Time;durP1;ratioP1;P1;durP2;ratioP2;P2;SDS_P1;SDS_P2;PMS_P1;PMS_P2;Temp;Humidity;BMP_temperature;BMP_pressure;BME280_temperature;BME280_humidity;BME280_pressure;Samples;Min_cycle;Max_cycle;Signal;HPM_P1;HPM_P2
2023/03/19 00:02:09;;;;;;;22.65;12.30;;;6.40;96.80;;;;;;5031865;28;20380;-59
2023/03/19 00:04:35;;;;;;;23.25;12.90;;;6.40;99.90;;;;;;5052053;28;20048;-60
2023/03/19 00:07:00;;;;;;;29.30;13.00;;;6.40;99.40;;;;;;5027440;28;20116;-59
2023/03/19 00:09:26;;;;;;;18.88;10.55;;;6.30;96.10;;;;;;5047123;28;20586;-60
2023/03/19 00:11:52;;;;;;;22.90;11.32;;;6.40;96.10;;;;;;5051577;28;20493;-59
2023/03/19 00:14:17;;;;;;;21.83;10.80;;;6.30;95.00;;;;;;5048548;28;20037;-60
2023/03/19 00:16:43;;;;;;;16.42;10.02;;;6.30;94.60;;;;;;5032676;28;20029;-59
2023/03/19 00:19:09;;;;;;;15.55;8.60;;;6.30;95.60;;;;;;5031917;28;20136;-60
2023/03/19 00:21:35;;;;;;;18.13;8.25;;;6.30;96.40;;;;;;5051792;28;20025;-60
2023/03/19 00:24:01;;;;;;;12.02;7.53;;;6.30;99.90;;;;;;5031010;28;20634;-60
2023/03/19 00:26:32;;;;;;;14.13;7.43;;;6.20;99.30;;;;;;5051655;28;20089;-60
2023/03/19 00:28:58;;;;;;;14.45;7.32;;;6.20;99.50;;;;;;5030312;28;20041;-59
2023/03/19 00:31:25;;;;;;;9.82;6.35;;;6.20;99.40;;;;;;5042570;28;20041;-60
2023/03/19 00:33:52;;;;;;;11.48;6.13;;;6.20;99.20;;;;;;5034144;28;20800;-59
2023/03/19 00:36:17;;;;;;;14.98;6.35;;;6.10;98.10;;;;;;5041002;28;20033;-60
2023/03/19 00:38:44;;;;;;;14.57;6.93;;;6.20;97.00;;;;;;5033702;28;20102;-60
2023/03/19 00:41:11;;;;;;;14.52;5.97;;;6.10;96.20;;;;;;5049793;28;20566;-60
2023/03/19 00:43:37;;;;;;;9.93;5.95;;;6.10;96.20;;;;;;5030167;28;20030;-60
2023/03/19 00:46:02;;;;;;;9.70;5.68;;;6.10;97.10;;;;;;5050866;28;20683;-59
2023/03/19 00:48:28;;;;;;;9.57;5.50;;;6.10;98.50;;;;;;5030656;28;20038;-60
2023/03/19 00:50:54;;;;;;;8.98;5.68;;;6.10;99.30;;;;;;5051392;28;20033;-60
2023/03/19 00:53:20;;;;;;;9.43;5.75;;;6.00;99.90;;;;;;5030322;28;20588;-60
2023/03/19 00:55:46;;;;;;;13.43;6.05;;;6.00;99.90;;;;;;5051347;28;20500;-60
2023/03/19 00:58:12;;;;;;;11.13;4.93;;;5.90;99.70;;;;;;5036995;28;20032;-60
2023/03/19 01:00:37;;;;;;;8.40;4.97;;;5.90;98.80;;;;;;5029778;28;20025;-60
2023/03/19 01:03:05;;;;;;;8.15;5.18;;;5.90;99.90;;;;;;5046087;28;20028;-59
2023/03/19 01:05:30;;;;;;;8.90;5.25;;;5.80;99.90;;;;;;5027123;28;20028;-59
2023/03/19 01:07:56;;;;;;;11.38;6.60;;;5.80;99.90;;;;;;5041704;28;20032;-59
2023/03/19 01:10:23;;;;;;;11.23;5.53;;;5.80;99.90;;;;;;5039055;28;20041;-59
2023/03/19 01:12:49;;;;;;;10.85;6.05;;;5.80;99.90;;;;;;5046139;28;20037;-59
2023/03/19 01:15:15;;;;;;;8.75;5.13;;;5.80;99.90;;;;;;5046659;28;20086;-59
2023/03/19 01:17:41;;;;;;;12.63;6.00;;;5.80;99.90;;;;;;5032726;28;20037;-59
2023/03/19 01:20:11;;;;;;;11.40;5.75;;;5.80;99.90;;;;;;5033141;28;20462;-59
2023/03/19 01:22:39;;;;;;;11.15;5.75;;;5.70;99.90;;;;;;5018119;28;20262;-59
2023/03/19 01:25:05;;;;;;;9.77;5.32;;;5.70;98.90;;;;;;5048428;28;20029;-59
2023/03/19 01:27:31;;;;;;;9.18;5.10;;;5.70;98.80;;;;;;5046171;28;20504;-58
2023/03/19 01:29:56;;;;;;;10.38;6.07;;;5.70;99.10;;;;;;5047937;28;20075;-58
2023/03/19 01:32:22;;;;;;;9.23;5.43;;;5.70;99.90;;;;;;5026550;28;20079;-59
2023/03/19 01:34:47;;;;;;;15.57;6.05;;;5.70;99.90;;;;;;5028186;28;20074;-59
2023/03/19 01:37:13;;;;;;;10.63;6.10;;;5.70;99.90;;;;;;5045307;28;20068;-59
2023/03/19 01:39:39;;;;;;;8.45;5.65;;;5.70;99.90;;;;;;5048191;28;20029;-59
2023/03/19 01:42:05;;;;;;;8.95;5.95;;;5.70;99.90;;;;;;5027369;28;20025;-59
2023/03/19 01:44:34;;;;;;;9.40;5.13;;;5.70;99.90;;;;;;5045761;28;20032;-59
2023/03/19 01:47:03;;;;;;;12.50;5.63;;;5.70;99.90;;;;;;5016182;28;20103;-59
2023/03/19 01:49:30;;;;;;;8.32;5.90;;;5.60;99.90;;;;;;5039756;28;20021;-60
2023/03/19 01:51:58;;;;;;;11.88;5.68;;;5.60;99.90;;;;;;5044997;28;20040;-58
2023/03/19 01:54:24;;;;;;;10.35;5.95;;;5.60;99.90;;;;;;5028523;28;20053;-60
2023/03/19 01:57:06;;;;;;;9.68;5.45;;;5.60;99.90;;;;;;5030316;28;20474;-59
2023/03/19 02:00:01;;;;;;;10.95;5.57;;;5.60;99.90;;;;;;5027155;28;20037;-59
2023/03/19 02:02:33;;;;;;;13.57;6.82;;;5.60;99.90;;;;;;5009985;28;20042;-59
2023/03/19 02:05:24;;;;;;;10.85;5.57;;;5.70;99.90;;;;;;5029829;28;20512;-58
2023/03/19 02:07:53;;;;;;;14.32;6.85;;;5.70;99.90;;;;;;5041345;28;20113;-59
2023/03/19 02:10:21;;;;;;;11.02;6.38;;;5.70;99.90;;;;;;5028612;28;20747;-59
2023/03/19 02:12:47;;;;;;;13.00;6.95;;;5.70;99.90;;;;;;5041473;28;20081;-60
2023/03/19 02:15:12;;;;;;;10.75;5.95;;;5.70;99.90;;;;;;5030101;28;20106;-59
2023/03/19 02:17:39;;;;;;;9.85;6.47;;;5.70;99.90;;;;;;5042129;28;20742;-60
2023/03/19 02:20:45;;;;;;;7.53;5.13;;;5.70;99.90;;;;;;5029850;28;20389;-59
2023/03/19 02:23:20;;;;;;;13.57;6.20;;;5.70;99.90;;;;;;5032080;28;20047;-60
2023/03/19 02:25:45;;;;;;;9.73;5.68;;;5.80;99.90;;;;;;5010144;28;20018;-60
2023/03/19 02:28:14;;;;;;;11.13;6.18;;;5.70;99.90;;;;;;5036912;28;20036;-59
2023/03/19 02:30:42;;;;;;;10.45;5.72;;;5.70;99.90;;;;;;5046554;28;20702;-60
2023/03/19 02:33:12;;;;;;;11.45;5.60;;;5.60;99.90;;;;;;5027700;28;20398;-59
2023/03/19 02:35:39;;;;;;;14.38;6.47;;;5.60;99.90;;;;;;5049334;28;20033;-60
2023/03/19 02:38:06;;;;;;;13.48;5.80;;;5.60;99.90;;;;;;5027803;28;20052;-61
2023/03/19 02:40:37;;;;;;;12.18;6.93;;;5.60;99.90;;;;;;5048810;28;20059;-60
2023/03/19 02:43:02;;;;;;;10.85;5.63;;;5.60;99.90;;;;;;5014952;28;20025;-60
2023/03/19 02:45:30;;;;;;;9.82;6.13;;;5.60;99.90;;;;;;5048507;28;20086;-60
2023/03/19 02:47:56;;;;;;;14.18;6.35;;;5.60;99.90;;;;;;5027464;28;20022;-59
2023/03/19 02:50:22;;;;;;;11.82;6.53;;;5.50;99.90;;;;;;5028127;28;20397;-60
2023/03/19 02:52:47;;;;;;;9.77;5.63;;;5.50;99.90;;;;;;5040109;28;20033;-61
2023/03/19 02:55:13;;;;;;;15.50;6.72;;;5.50;99.90;;;;;;5029122;28;20029;-60
2023/03/19 02:57:38;;;;;;;11.20;6.55;;;5.50;99.90;;;;;;5041314;28;20036;-60
2023/03/19 03:00:06;;;;;;;12.13;6.00;;;5.60;99.90;;;;;;5029176;28;20693;-60
2023/03/19 03:02:32;;;;;;;10.15;5.63;;;5.60;99.90;;;;;;5041315;28;20025;-61
2023/03/19 03:04:57;;;;;;;10.63;5.93;;;5.60;99.90;;;;;;5027687;28;20388;-60
2023/03/19 03:07:23;;;;;;;10.27;6.28;;;5.60;99.90;;;;;;5047030;28;20540;-60
2023/03/19 03:09:48;;;;;;;10.60;6.32;;;5.60;99.90;;;;;;5047671;28;20109;-59
2023/03/19 03:12:14;;;;;;;10.82;6.25;;;5.70;99.90;;;;;;5029183;28;20041;-60
2023/03/19 03:14:40;;;;;;;12.57;6.35;;;5.70;99.90;;;;;;5048736;28;20021;-65
2023/03/19 03:17:07;;;;;;;11.35;6.43;;;5.70;99.90;;;;;;5028013;28;20060;-64
2023/03/19 03:19:33;;;;;;;11.30;6.20;;;5.80;99.90;;;;;;5048573;28;20274;-65
2023/03/19 03:21:59;;;;;;;13.55;7.85;;;5.90;99.90;;;;;;5028705;28;20272;-64
2023/03/19 03:24:25;;;;;;;13.27;6.50;;;5.90;99.90;;;;;;5045186;28;20025;-64
2023/03/19 03:26:51;;;;;;;10.45;6.20;;;5.90;99.90;;;;;;5028883;28;20132;-64
2023/03/19 03:29:17;;;;;;;12.45;6.68;;;6.00;99.90;;;;;;5025980;28;20064;-64
2023/03/19 03:31:42;;;;;;;13.02;7.22;;;6.00;99.90;;;;;;5046148;28;20098;-65
2023/03/19 03:34:08;;;;;;;13.70;6.90;;;6.10;99.90;;;;;;5027249;28;20045;-65
2023/03/19 03:36:33;;;;;;;13.88;6.13;;;6.10;99.90;;;;;;5047792;28;20109;-65
2023/03/19 03:38:59;;;;;;;12.98;6.75;;;6.10;99.90;;;;;;5027095;28;20029;-64
2023/03/19 03:41:24;;;;;;;12.63;6.18;;;6.10;99.90;;;;;;5047510;28;20025;-65
2023/03/19 03:43:50;;;;;;;9.02;5.88;;;6.20;99.90;;;;;;5025986;28;20021;-65
2023/03/19 03:46:15;;;;;;;14.45;6.88;;;6.10;99.90;;;;;;5047474;28;20084;-64
2023/03/19 03:48:41;;;;;;;12.43;5.90;;;6.10;99.90;;;;;;5027234;28;20082;-65
2023/03/19 03:51:06;;;;;;;13.23;6.97;;;6.10;99.90;;;;;;5047543;28;20120;-64
2023/03/19 03:53:32;;;;;;;9.30;5.57;;;6.10;99.90;;;;;;5027000;28;20048;-64
2023/03/19 03:55:57;;;;;;;10.75;6.97;;;6.10;99.90;;;;;;5047509;28;20075;-64
2023/03/19 03:58:23;;;;;;;13.40;6.90;;;6.10;99.90;;;;;;5026911;28;20032;-64
2023/03/19 04:00:50;;;;;;;14.23;7.72;;;6.10;99.90;;;;;;5047378;28;20035;-65
2023/03/19 04:03:16;;;;;;;12.68;7.40;;;6.20;99.90;;;;;;5033041;28;20037;-64
2023/03/19 04:05:43;;;;;;;12.40;6.38;;;6.10;99.90;;;;;;5034555;28;20032;-64
2023/03/19 04:08:09;;;;;;;12.82;6.40;;;6.20;99.90;;;;;;5026081;28;20049;-65
2023/03/19 04:10:35;;;;;;;11.15;7.00;;;6.20;99.90;;;;;;5046258;28;20057;-65
2023/03/19 04:13:01;;;;;;;10.65;6.22;;;6.20;99.90;;;;;;5026258;28;20033;-64
2023/03/19 04:15:26;;;;;;;10.23;6.13;;;6.20;99.90;;;;;;5046035;28;20101;-65
2023/03/19 04:17:52;;;;;;;11.00;6.85;;;6.30;99.90;;;;;;5025438;28;20037;-65
2023/03/19 04:20:18;;;;;;;12.30;6.97;;;6.30;99.90;;;;;;5028098;28;20025;-65
2023/03/19 04:22:44;;;;;;;14.32;7.00;;;6.30;99.90;;;;;;5039096;28;20026;-65
2023/03/19 04:25:10;;;;;;;14.40;7.47;;;6.30;99.90;;;;;;5028115;28;20032;-65
2023/03/19 04:27:35;;;;;;;15.85;7.97;;;6.30;99.90;;;;;;5040325;28;20093;-66
2023/03/19 04:30:01;;;;;;;15.18;7.43;;;6.30;99.90;;;;;;5028073;28;20025;-65
2023/03/19 04:32:27;;;;;;;15.70;7.82;;;6.30;99.40;;;;;;5041265;28;20038;-65
2023/03/19 04:34:52;;;;;;;13.90;7.60;;;6.30;99.00;;;;;;5029653;28;20121;-65
2023/03/19 04:37:18;;;;;;;12.57;6.88;;;6.40;98.70;;;;;;5032083;28;20112;-65
2023/03/19 04:39:44;;;;;;;10.20;6.32;;;6.30;98.70;;;;;;5043683;28;20021;-65
2023/03/19 04:42:10;;;;;;;13.93;7.45;;;6.40;98.50;;;;;;5031731;28;20044;-65
2023/03/19 04:44:36;;;;;;;10.80;6.90;;;6.40;98.20;;;;;;5044623;28;20489;-65
2023/03/19 04:47:02;;;;;;;12.82;7.93;;;6.40;98.00;;;;;;5031666;28;20025;-64
2023/03/19 04:49:29;;;;;;;14.10;7.60;;;6.40;98.30;;;;;;5045638;28;20540;-65
2023/03/19 04:51:55;;;;;;;16.13;8.40;;;6.40;98.10;;;;;;5031706;28;20121;-65
2023/03/19 04:54:21;;;;;;;13.00;6.75;;;6.30;98.10;;;;;;5046355;28;20521;-65
2023/03/19 04:56:46;;;;;;;10.93;7.18;;;6.40;98.10;;;;;;5031672;28;20129;-65
2023/03/19 04:59:12;;;;;;;12.55;7.13;;;6.40;98.10;;;;;;5047668;28;20564;-65
2023/03/19 05:01:37;;;;;;;11.98;7.00;;;6.40;98.20;;;;;;5031476;28;20021;-66
2023/03/19 05:04:03;;;;;;;13.40;7.50;;;6.40;98.00;;;;;;5050607;28;20501;-65
2023/03/19 05:06:30;;;;;;;12.85;6.68;;;6.40;99.30;;;;;;5005283;28;20033;-65
2023/03/19 05:08:55;;;;;;;14.32;7.30;;;6.50;98.30;;;;;;5031824;28;20041;-65
2023/03/19 05:11:21;;;;;;;15.85;7.30;;;6.50;98.10;;;;;;5050450;28;20029;-65
2023/03/19 05:13:46;;;;;;;14.95;7.82;;;6.50;97.90;;;;;;5029904;28;20056;-65
2023/03/19 05:16:12;;;;;;;10.77;7.28;;;6.50;98.10;;;;;;5050217;28;20418;-65
2023/03/19 05:18:39;;;;;;;11.73;7.07;;;6.60;98.30;;;;;;5029808;28;20021;-65
2023/03/19 05:21:05;;;;;;;11.68;7.32;;;6.60;98.40;;;;;;5050374;28;20029;-65
2023/03/19 05:23:30;;;;;;;13.82;7.43;;;6.60;98.90;;;;;;5029745;28;20387;-65
2023/03/19 05:26:01;;;;;;;10.70;6.53;;;6.60;98.20;;;;;;5050093;28;20116;-64
2023/03/19 05:28:27;;;;;;;11.82;7.28;;;6.60;98.00;;;;;;5027941;28;20038;-65
2023/03/19 05:30:52;;;;;;;14.25;7.40;;;6.70;98.00;;;;;;5045358;28;20398;-65
2023/03/19 05:33:18;;;;;;;11.82;6.93;;;6.70;98.50;;;;;;5038888;28;20485;-65
2023/03/19 05:35:45;;;;;;;12.18;6.88;;;6.70;98.20;;;;;;5031208;28;20060;-65
2023/03/19 05:38:10;;;;;;;11.10;6.65;;;6.80;98.30;;;;;;5047847;28;20029;-66
2023/03/19 05:40:36;;;;;;;11.75;6.47;;;6.80;98.00;;;;;;5031521;28;20025;-66
2023/03/19 05:43:02;;;;;;;10.07;6.45;;;6.80;98.20;;;;;;5047803;28;20033;-65
2023/03/19 05:45:27;;;;;;;13.27;6.78;;;6.80;98.20;;;;;;5030374;28;20033;-66
2023/03/19 05:47:52;;;;;;;11.77;7.00;;;6.90;98.40;;;;;;5048015;28;20083;-66
2023/03/19 05:50:18;;;;;;;12.55;6.70;;;6.90;98.70;;;;;;5030809;28;20042;-66
2023/03/19 05:52:43;;;;;;;14.98;7.20;;;7.00;98.40;;;;;;5047628;28;20056;-65
2023/03/19 05:55:09;;;;;;;17.40;8.23;;;7.00;98.10;;;;;;5024219;28;20485;-65
2023/03/19 05:57:35;;;;;;;10.70;6.15;;;7.10;98.30;;;;;;5032742;28;20026;-64
2023/03/19 06:00:01;;;;;;;13.23;8.20;;;7.10;99.10;;;;;;5026931;28;20413;-64
2023/03/19 06:02:26;;;;;;;15.10;8.52;;;7.10;99.90;;;;;;5034266;28;20086;-65
2023/03/19 06:04:52;;;;;;;13.38;7.88;;;7.10;99.10;;;;;;5030803;28;20029;-70
2023/03/19 06:07:17;;;;;;;18.35;12.77;;;7.20;99.20;;;;;;5045689;28;20377;-64
2023/03/19 06:09:43;;;;;;;17.98;11.50;;;7.20;99.00;;;;;;5026479;28;20037;-64
2023/03/19 06:12:08;;;;;;;17.27;10.68;;;7.20;97.80;;;;;;5048074;28;20041;-64
2023/03/19 06:14:34;;;;;;;20.55;12.40;;;7.30;97.50;;;;;;5026652;28;20033;-64
2023/03/19 06:16:59;;;;;;;16.15;10.13;;;7.40;96.70;;;;;;5046538;28;20068;-63
2023/03/19 06:19:25;;;;;;;18.75;10.13;;;7.50;96.00;;;;;;5012959;28;20048;-64
2023/03/19 06:21:51;;;;;;;18.45;10.05;;;7.70;96.00;;;;;;5047330;28;20437;-64
2023/03/19 06:24:16;;;;;;;16.08;8.98;;;7.80;95.90;;;;;;5027236;28;20680;-64
2023/03/19 06:26:42;;;;;;;11.43;7.28;;;8.00;95.70;;;;;;5047579;28;20116;-64
2023/03/19 06:29:07;;;;;;;11.88;7.13;;;8.40;95.40;;;;;;5027301;28;20131;-65
2023/03/19 06:31:33;;;;;;;11.68;7.85;;;8.80;91.70;;;;;;5037105;28;20056;-64
2023/03/19 06:33:59;;;;;;;15.80;8.50;;;9.10;89.20;;;;;;5045282;28;20037;-64
2023/03/19 06:36:25;;;;;;;10.55;7.22;;;9.40;87.20;;;;;;5037573;28;20445;-64
2023/03/19 06:38:50;;;;;;;13.05;7.72;;;9.90;82.70;;;;;;5029017;28;20099;-65
2023/03/19 06:41:16;;;;;;;11.30;7.40;;;10.50;77.60;;;;;;5045607;28;20068;-65
2023/03/19 06:43:41;;;;;;;9.55;6.70;;;10.90;73.40;;;;;;5028712;28;20026;-65
2023/03/19 06:46:08;;;;;;;11.85;7.95;;;11.20;74.70;;;;;;5045632;28;20454;-64
2023/03/19 06:48:34;;;;;;;12.98;7.63;;;11.50;72.30;;;;;;5028741;28;20116;-64
2023/03/19 06:51:00;;;;;;;12.07;7.82;;;11.60;68.70;;;;;;5045549;28;20111;-65
2023/03/19 06:53:26;;;;;;;11.07;6.68;;;11.70;69.40;;;;;;5038679;28;20076;-66
2023/03/19 06:55:52;;;;;;;9.40;6.50;;;11.70;68.30;;;;;;5042163;28;20028;-65
2023/03/19 06:58:17;;;;;;;12.60;7.95;;;11.60;65.60;;;;;;5022365;28;20037;-65
2023/03/19 07:00:43;;;;;;;12.38;7.68;;;11.40;64.80;;;;;;5023775;28;20068;-65
2023/03/19 07:03:09;;;;;;;11.48;8.10;;;11.30;61.00;;;;;;5031489;28;20037;-65
2023/03/19 07:05:35;;;;;;;10.90;7.68;;;11.20;64.90;;;;;;5021554;28;20393;-65
2023/03/19 07:08:00;;;;;;;13.77;7.95;;;11.20;64.70;;;;;;5010679;28;20025;-64
2023/03/19 07:10:26;;;;;;;11.85;7.85;;;11.30;65.10;;;;;;5022151;28;20394;-65
2023/03/19 07:12:52;;;;;;;12.02;8.00;;;11.40;64.80;;;;;;5025624;28;20022;-65
2023/03/19 07:15:20;;;;;;;11.75;7.32;;;11.30;64.30;;;;;;5031462;28;20037;-54
2023/03/19 07:17:46;;;;;;;13.90;8.15;;;11.50;64.70;;;;;;5042288;28;20389;-51
2023/03/19 07:20:12;;;;;;;10.70;7.13;;;11.70;65.30;;;;;;5032492;28;20022;-49
2023/03/19 07:22:37;;;;;;;11.40;7.30;;;11.90;64.10;;;;;;5033244;28;20056;-53
2023/03/19 07:25:03;;;;;;;12.38;7.57;;;12.00;64.90;;;;;;5043814;28;20047;-50
2023/03/19 07:27:28;;;;;;;11.38;7.82;;;12.00;63.80;;;;;;5026860;28;20505;-50
2023/03/19 07:29:54;;;;;;;10.18;7.18;;;12.10;63.00;;;;;;5024642;28;20021;-51
2023/03/19 07:32:20;;;;;;;11.73;6.90;;;12.10;61.90;;;;;;5045506;28;20692;-47
2023/03/19 07:34:46;;;;;;;11.48;7.53;;;12.30;63.60;;;;;;5025267;28;20029;-52
2023/03/19 07:37:11;;;;;;;12.15;7.03;;;12.40;61.70;;;;;;5039868;28;20042;-52
2023/03/19 07:39:37;;;;;;;10.45;6.78;;;12.60;62.20;;;;;;5027837;28;20041;-52
2023/03/19 07:42:03;;;;;;;10.20;6.95;;;12.80;61.80;;;;;;5044416;28;20049;-51
2023/03/19 07:44:29;;;;;;;11.88;6.65;;;12.80;61.30;;;;;;5023633;28;20124;-54
2023/03/19 07:46:54;;;;;;;10.98;6.15;;;12.70;61.40;;;;;;5045479;28;20027;-53
2023/03/19 07:49:22;;;;;;;13.77;6.90;;;12.60;61.60;;;;;;5025345;28;20041;-52
2023/03/19 07:51:47;;;;;;;10.45;7.55;;;12.50;62.80;;;;;;5045821;28;20029;-51
2023/03/19 07:54:13;;;;;;;10.52;6.60;;;12.30;62.60;;;;;;5031314;28;20096;-52
2023/03/19 07:56:38;;;;;;;12.80;7.30;;;12.20;63.80;;;;;;5045297;28;20518;-50
2023/03/19 07:59:04;;;;;;;13.40;7.03;;;12.10;63.90;;;;;;5024735;28;20041;-53
2023/03/19 08:01:30;;;;;;;9.85;6.30;;;12.00;64.20;;;;;;5036346;28;20022;-50
2023/03/19 08:03:56;;;;;;;10.63;6.68;;;12.00;65.30;;;;;;5043993;28;20025;-50
2023/03/19 08:06:22;;;;;;;7.78;5.60;;;12.00;65.40;;;;;;5019498;28;20029;-53
2023/03/19 08:08:48;;;;;;;11.60;6.47;;;12.10;66.80;;;;;;5030430;28;20045;-50
2023/03/19 08:11:13;;;;;;;9.98;6.22;;;12.20;67.10;;;;;;5049430;28;20075;-50
2023/03/19 08:13:39;;;;;;;9.38;6.38;;;12.40;67.50;;;;;;5028848;28;20037;-50
2023/03/19 08:16:04;;;;;;;10.23;6.93;;;12.60;68.30;;;;;;5047448;28;20039;-49
2023/03/19 08:18:30;;;;;;;9.63;6.32;;;12.80;68.60;;;;;;5027071;28;20592;-54
2023/03/19 08:20:55;;;;;;;10.90;6.90;;;13.00;67.90;;;;;;5029639;28;20525;-51
2023/03/19 08:23:21;;;;;;;10.43;6.90;;;13.10;65.80;;;;;;5028885;28;20033;-53
2023/03/19 08:25:50;;;;;;;12.02;7.97;;;13.20;64.60;;;;;;5043246;28;20041;-53
2023/03/19 08:28:15;;;;;;;13.75;8.27;;;13.30;66.10;;;;;;5030037;28;20056;-54
2023/03/19 08:30:41;;;;;;;11.55;8.02;;;13.30;65.50;;;;;;5046097;28;20069;-49
2023/03/19 08:33:07;;;;;;;13.35;8.02;;;13.40;65.20;;;;;;5027343;28;20044;-53
2023/03/19 08:35:33;;;;;;;14.13;8.77;;;13.50;64.80;;;;;;5045311;28;20025;-53
2023/03/19 08:37:59;;;;;;;11.15;7.45;;;13.50;62.50;;;;;;5032022;28;20505;-49
2023/03/19 08:40:24;;;;;;;12.13;6.57;;;13.60;65.10;;;;;;5048877;28;20037;-52
2023/03/19 08:42:50;;;;;;;10.13;6.30;;;13.70;68.40;;;;;;5027235;28;20102;-52
2023/03/19 08:45:16;;;;;;;8.50;5.78;;;13.90;67.60;;;;;;5048457;28;20086;-49
2023/03/19 08:47:42;;;;;;;7.85;5.15;;;14.10;66.50;;;;;;5028120;28;20032;-48
2023/03/19 08:50:09;;;;;;;7.60;5.25;;;14.30;66.10;;;;;;5034478;28;20025;-49
2023/03/19 08:52:35;;;;;;;9.40;5.63;;;14.50;66.30;;;;;;5034971;28;20527;-54
2023/03/19 08:55:00;;;;;;;8.07;5.50;;;14.50;62.90;;;;;;5048662;28;20082;-53
2023/03/19 08:57:26;;;;;;;7.82;5.10;;;14.70;63.90;;;;;;5046665;28;20086;-52
2023/03/19 08:59:52;;;;;;;6.10;5.22;;;14.90;62.30;;;;;;5029953;28;20402;-52
2023/03/19 09:02:18;;;;;;;6.78;4.10;;;14.80;61.70;;;;;;5046437;28;20041;-50
2023/03/19 09:04:44;;;;;;;5.82;4.13;;;14.90;63.70;;;;;;5032320;28;20021;-49
2023/03/19 09:07:14;;;;;;;6.10;3.92;;;14.80;64.70;;;;;;5038711;28;20037;-53
2023/03/19 09:09:44;;;;;;;8.35;4.75;;;15.00;64.60;;;;;;5029052;28;20029;-50
2023/03/19 09:12:12;;;;;;;5.60;3.55;;;14.80;63.50;;;;;;5045645;28;20874;-53
2023/03/19 09:14:38;;;;;;;5.18;3.58;;;14.90;64.30;;;;;;5049062;28;20041;-54
2023/03/19 09:17:04;;;;;;;8.90;4.78;;;14.90;64.50;;;;;;5025690;28;20025;-54
2023/03/19 09:19:31;;;;;;;7.45;5.32;;;14.80;63.90;;;;;;5048124;28;20139;-53
2023/03/19 09:21:56;;;;;;;9.27;5.10;;;14.40;62.00;;;;;;5029071;28;20041;-51
2023/03/19 09:24:22;;;;;;;10.57;6.15;;;14.20;62.80;;;;;;5025754;28;20567;-52
2023/03/19 09:26:48;;;;;;;7.22;5.30;;;14.10;63.10;;;;;;5040811;28;20071;-52
2023/03/19 09:29:14;;;;;;;7.97;5.20;;;14.00;63.60;;;;;;5028183;28;20029;-54
2023/03/19 09:31:40;;;;;;;10.50;5.78;;;13.90;64.00;;;;;;5036953;28;20053;-55
2023/03/19 09:34:06;;;;;;;10.85;6.25;;;13.70;64.00;;;;;;5028863;28;20140;-55
2023/03/19 09:36:32;;;;;;;16.58;13.68;;;13.70;64.70;;;;;;5043037;28;20029;-54
2023/03/19 09:38:57;;;;;;;12.20;8.18;;;13.60;66.70;;;;;;5029166;28;20038;-52
2023/03/19 09:41:58;;;;;;;13.13;7.78;;;13.60;67.90;;;;;;5031692;28;20087;-50
2023/03/19 09:44:33;;;;;;;8.75;5.60;;;13.50;69.70;;;;;;5026182;28;20509;-53
2023/03/19 09:47:22;;;;;;;9.27;6.28;;;13.40;70.50;;;;;;5010905;28;20044;-51
2023/03/19 09:49:49;;;;;;;10.88;5.80;;;13.30;71.20;;;;;;5041634;28;20030;-53
2023/03/19 09:52:37;;;;;;;9.98;5.82;;;13.30;72.50;;;;;;5045541;28;20043;-52
2023/03/19 09:55:30;;;;;;;9.43;6.30;;;13.20;76.60;;;;;;5048225;28;20021;-52
2023/03/19 09:57:57;;;;;;;9.65;7.18;;;12.90;84.10;;;;;;5028582;28;20145;-53
2023/03/19 10:00:26;;;;;;;10.77;7.28;;;12.50;95.30;;;;;;5027900;28;20025;-51
2023/03/19 10:03:20;;;;;;;15.25;8.63;;;12.10;96.30;;;;;;5045961;28;20032;-51
2023/03/19 10:05:57;;;;;;;14.50;8.65;;;11.80;99.90;;;;;;5021407;28;20025;-54
2023/03/19 10:08:38;;;;;;;12.15;8.43;;;11.50;99.90;;;;;;5028251;28;20111;-53
2023/03/19 10:11:07;;;;;;;8.85;6.93;;;11.30;99.90;;;;;;5014802;28;20022;-52
2023/03/19 10:13:41;;;;;;;10.85;7.60;;;11.30;99.90;;;;;;5033197;28;20033;-51
2023/03/19 10:16:15;;;;;;;13.63;8.70;;;11.30;99.90;;;;;;5029394;28;20658;-53
2023/03/19 10:18:46;;;;;;;12.30;8.05;;;11.20;99.90;;;;;;5032377;28;20045;-54
2023/03/19 10:21:50;;;;;;;14.38;7.65;;;11.10;99.90;;;;;;5007696;28;20449;-51
2023/03/19 10:24:26;;;;;;;11.43;8.20;;;11.10;99.90;;;;;;5023839;28;20069;-51
2023/03/19 10:26:57;;;;;;;9.82;7.35;;;11.00;99.90;;;;;;5022022;28;20033;-54
2023/03/19 10:29:23;;;;;;;11.35;7.05;;;11.00;99.90;;;;;;5026533;28;20041;-54
2023/03/19 10:32:03;;;;;;;11.02;7.38;;;11.00;99.90;;;;;;5046954;28;20060;-49
2023/03/19 10:34:37;;;;;;;8.38;6.57;;;11.00;99.90;;;;;;5019887;28;20129;-53
2023/03/19 10:37:12;;;;;;;11.40;6.90;;;11.10;99.90;;;;;;5027609;28;20021;-52
2023/03/19 10:39:40;;;;;;;9.60;6.33;;;11.20;99.90;;;;;;5011744;28;20052;-54
2023/03/19 10:42:36;;;;;;;11.75;6.88;;;11.20;99.90;;;;;;5047454;28;20477;-53
2023/03/19 10:45:15;;;;;;;10.73;7.47;;;11.20;99.90;;;;;;5017808;28;20032;-54
2023/03/19 10:47:42;;;;;;;9.73;6.50;;;11.30;99.90;;;;;;5047508;28;20104;-53
2023/03/19 10:50:16;;;;;;;11.00;6.65;;;11.50;99.90;;;;;;5032733;28;20033;-53
2023/03/19 10:52:42;;;;;;;14.18;8.50;;;11.60;99.90;;;;;;5028709;28;20068;-54
2023/03/19 10:55:34;;;;;;;13.27;7.80;;;11.70;99.90;;;;;;5044445;28;20060;-52
2023/03/19 10:58:15;;;;;;;11.52;7.40;;;11.90;99.90;;;;;;5007923;28;20581;-51
2023/03/19 11:00:45;;;;;;;10.77;6.78;;;11.90;99.90;;;;;;5028206;28;20039;-55
2023/03/19 11:03:32;;;;;;;12.82;7.53;;;12.00;99.90;;;;;;5025623;28;20061;-52
2023/03/19 11:06:22;;;;;;;16.55;7.65;;;12.00;99.90;;;;;;5034481;28;20041;-60
2023/03/19 11:08:57;;;;;;;11.70;7.03;;;12.00;99.90;;;;;;5007195;28;20410;-60
2023/03/19 11:11:36;;;;;;;13.30;6.85;;;12.00;99.90;;;;;;5022400;28;20552;-61
2023/03/19 11:14:17;;;;;;;8.32;5.78;;;12.00;99.90;;;;;;5022178;28;20092;-61
2023/03/19 11:16:50;;;;;;;7.65;5.45;;;12.10;99.90;;;;;;5025035;28;20575;-48
2023/03/19 11:19:25;;;;;;;8.38;5.63;;;12.30;99.90;;;;;;5028318;28;20039;-50
2023/03/19 11:22:16;;;;;;;10.52;5.97;;;12.40;99.90;;;;;;5026608;28;20447;-46
2023/03/19 11:24:49;;;;;;;12.88;6.72;;;12.50;99.90;;;;;;5017657;28;20044;-46
2023/03/19 11:27:15;;;;;;;11.00;7.82;;;12.50;99.90;;;;;;5045957;28;20024;-49
2023/03/19 11:29:42;;;;;;;11.90;8.00;;;12.50;99.90;;;;;;5037735;28;20028;-47
2023/03/19 11:32:36;;;;;;;11.68;7.20;;;12.40;99.90;;;;;;5032045;28;20045;-50
2023/03/19 11:35:20;;;;;;;11.05;7.95;;;12.40;99.90;;;;;;5022120;28;20519;-47
2023/03/19 11:37:48;;;;;;;10.57;6.82;;;12.50;99.90;;;;;;5026732;28;20021;-47
2023/03/19 11:40:39;;;;;;;9.90;7.47;;;12.50;99.90;;;;;;5038923;28;20132;-50
2023/03/19 11:43:39;;;;;;;8.13;6.35;;;12.50;99.90;;;;;;5021864;28;20033;-46
2023/03/19 11:46:11;;;;;;;11.48;6.05;;;12.60;99.90;;;;;;5019315;28;20061;-47
2023/03/19 11:49:09;;;;;;;7.70;5.60;;;12.60;99.90;;;;;;5026146;28;20037;-48
2023/03/19 11:51:55;;;;;;;7.35;4.75;;;12.70;99.90;;;;;;5022623;28;20442;-49
2023/03/19 11:54:24;;;;;;;8.43;5.10;;;12.70;99.90;;;;;;5011886;28;20029;-50
2023/03/19 11:57:03;;;;;;;6.60;5.05;;;12.80;99.90;;;;;;5046053;28;20036;-47
2023/03/19 11:59:44;;;;;;;7.10;4.97;;;13.00;99.90;;;;;;5004677;28;20485;-48
2023/03/19 12:02:15;;;;;;;6.82;4.60;;;13.10;99.90;;;;;;5025407;28;20526;-50
2023/03/19 12:05:14;;;;;;;6.97;5.00;;;13.20;99.90;;;;;;5026700;28;20037;-48
2023/03/19 12:08:01;;;;;;;6.97;4.53;;;13.40;99.90;;;;;;5045112;28;20025;-59
2023/03/19 12:10:44;;;;;;;6.22;3.97;;;13.50;99.90;;;;;;5023955;28;20063;-63
2023/03/19 12:13:36;;;;;;;5.50;3.40;;;13.60;99.90;;;;;;5005583;28;20049;-63
2023/03/19 12:16:26;;;;;;;5.80;3.25;;;13.80;99.90;;;;;;5017176;28;20053;-62
2023/03/19 12:19:04;;;;;;;4.38;3.13;;;13.90;99.90;;;;;;5005653;28;20022;-62
2023/03/19 12:21:39;;;;;;;3.60;2.58;;;14.10;99.10;;;;;;5022177;28;20045;-62
2023/03/19 12:24:39;;;;;;;3.72;2.90;;;14.20;99.70;;;;;;5026811;28;20029;-63
2023/03/19 12:27:33;;;;;;;5.68;3.95;;;14.50;98.60;;;;;;5032638;28;20049;-63
2023/03/19 12:30:05;;;;;;;5.72;2.92;;;14.70;96.00;;;;;;5017444;28;20036;-62
2023/03/19 12:32:52;;;;;;;4.50;3.15;;;14.80;96.00;;;;;;5031523;28;20529;-63
2023/03/19 12:35:24;;;;;;;6.70;3.58;;;15.00;96.40;;;;;;5030170;28;20029;-63
2023/03/19 12:38:16;;;;;;;5.80;2.97;;;15.10;95.70;;;;;;5017662;28;20075;-63
2023/03/19 12:40:51;;;;;;;8.60;5.25;;;15.30;94.10;;;;;;5030685;28;20071;-63
2023/03/19 12:43:33;;;;;;;7.00;4.03;;;15.50;94.60;;;;;;5016963;28;20437;-63
2023/03/19 12:46:08;;;;;;;4.78;3.60;;;15.60;94.00;;;;;;5018797;28;20033;-63
2023/03/19 12:48:49;;;;;;;7.03;3.80;;;15.70;93.80;;;;;;5021396;28;20038;-63
2023/03/19 12:51:20;;;;;;;5.55;3.70;;;15.90;92.30;;;;;;5017577;28;20033;-63
2023/03/19 12:53:55;;;;;;;4.75;3.55;;;16.00;92.80;;;;;;5006253;28;20506;-63
2023/03/19 12:56:48;;;;;;;7.38;4.00;;;16.10;90.70;;;;;;5025324;28;20033;-63
2023/03/19 12:59:54;;;;;;;13.07;6.43;;;16.20;89.00;;;;;;5008346;28;20060;-62